Time;durP1;ratioP1;P1;durP2;ratioP2;P2;SDS_P1;SDS_P2;PMS_P1;PMS_P2;Temp;Humidity;BMP_temperature;BMP_pressure;BME280_temperature;BME280_humidity;BME280_pressure;Samples;Min_cycle;Max_cycle;Signal;HPM_P1;HPM_P2
2022/08/01 00:01:13;;;;;;;0.20;0.00;;;26.30;99.90;;;;;;25671261;23;20202;-68
2022/08/01 00:11:18;;;;;;;0.20;0.00;;;26.70;99.90;;;;;;25684411;23;20198;-68
2022/08/01 00:21:22;;;;;;;0.20;0.00;;;26.70;99.90;;;;;;25696435;23;20198;-67
2022/08/01 00:31:28;;;;;;;0.20;0.08;;;26.80;99.90;;;;;;25696338;23;20213;-69
2022/08/01 00:41:31;;;;;;;0.20;0.00;;;26.80;99.90;;;;;;25670576;23;20154;-68
2022/08/01 00:51:37;;;;;;;0.20;0.00;;;26.80;99.90;;;;;;25695789;23;20206;-68
2022/08/01 01:01:41;;;;;;;0.20;0.00;;;26.90;99.90;;;;;;25695776;23;20256;-68
2022/08/01 01:12:02;;;;;;;0.20;0.10;;;26.80;99.90;;;;;;25703817;23;20202;-69
2022/08/01 01:22:35;;;;;;;0.20;0.05;;;26.70;99.90;;;;;;25677561;23;20173;-68
2022/08/01 01:32:44;;;;;;;0.20;0.00;;;26.70;99.90;;;;;;25702856;23;20206;-68
2022/08/01 01:42:48;;;;;;;0.20;0.00;;;26.50;99.90;;;;;;25702671;23;20205;-69
2022/08/01 01:52:56;;;;;;;0.20;0.00;;;26.50;99.90;;;;;;25701751;23;20186;-68
2022/08/01 02:03:02;;;;;;;0.20;0.00;;;26.60;99.90;;;;;;25674907;23;20218;-69
2022/08/01 02:13:08;;;;;;;0.20;0.00;;;26.50;99.90;;;;;;25701246;23;20197;-69
2022/08/01 02:23:13;;;;;;;0.20;0.00;;;26.30;99.90;;;;;;25674698;23;20186;-70
2022/08/01 02:33:21;;;;;;;0.20;0.00;;;26.30;99.90;;;;;;25673972;23;20210;-69
2022/08/01 02:43:29;;;;;;;0.20;0.00;;;26.30;99.90;;;;;;25700335;23;20213;-69
2022/08/01 02:53:38;;;;;;;0.20;0.00;;;26.20;99.90;;;;;;25699655;23;20186;-68
2022/08/01 03:03:47;;;;;;;0.20;0.00;;;26.00;99.90;;;;;;25698446;23;20198;-67
2022/08/01 03:13:54;;;;;;;0.20;0.00;;;26.00;99.90;;;;;;25699108;23;20202;-68
2022/08/01 03:24:00;;;;;;;0.20;0.00;;;26.00;99.90;;;;;;25698230;23;20201;-68
2022/08/01 03:34:07;;;;;;;0.20;0.00;;;26.10;99.90;;;;;;25697979;23;20189;-67
2022/08/01 03:44:15;;;;;;;0.20;0.10;;;26.00;99.90;;;;;;25697307;23;20193;-68
2022/08/01 03:54:24;;;;;;;0.20;0.00;;;25.90;99.90;;;;;;25697797;23;20190;-67
2022/08/01 04:04:29;;;;;;;0.20;0.00;;;25.90;99.90;;;;;;25696723;23;20194;-67
2022/08/01 04:14:35;;;;;;;0.20;0.10;;;26.00;99.90;;;;;;25669700;23;20213;-67
2022/08/01 04:24:41;;;;;;;0.20;0.00;;;26.20;99.90;;;;;;25695830;23;20212;-67
2022/08/01 04:34:48;;;;;;;0.20;0.00;;;26.30;99.90;;;;;;25669073;23;20257;-67
2022/08/01 04:44:52;;;;;;;0.20;0.00;;;26.30;99.90;;;;;;25695889;23;20220;-68
2022/08/01 04:54:58;;;;;;;0.20;0.00;;;26.20;99.90;;;;;;25694088;23;20241;-68
2022/08/01 05:05:02;;;;;;;0.20;0.00;;;26.20;99.90;;;;;;25690367;23;20221;-68
2022/08/01 05:15:09;;;;;;;0.20;0.00;;;26.10;99.90;;;;;;25694718;23;20186;-67
2022/08/01 05:25:18;;;;;;;0.20;0.00;;;26.50;99.90;;;;;;25694299;23;20154;-68
2022/08/01 05:35:43;;;;;;;0.20;0.10;;;26.70;99.90;;;;;;25693352;23;20194;-69
2022/08/01 05:45:51;;;;;;;0.20;0.00;;;26.80;99.90;;;;;;25664211;23;20166;-69
2022/08/01 05:55:56;;;;;;;0.20;0.10;;;26.80;99.90;;;;;;25699109;23;20245;-69
2022/08/01 06:06:00;;;;;;;0.20;0.10;;;27.00;99.90;;;;;;25700550;23;20194;-69
2022/08/01 06:16:06;;;;;;;0.20;0.10;;;27.20;99.90;;;;;;25674618;23;20202;-69
2022/08/01 06:26:11;;;;;;;0.20;0.00;;;27.70;99.90;;;;;;25699981;23;20166;-70
2022/08/01 06:36:16;;;;;;;0.20;0.00;;;28.20;99.90;;;;;;25699846;23;20254;-70
2022/08/01 06:46:20;;;;;;;0.20;0.00;;;28.10;99.90;;;;;;25699235;23;20205;-70
2022/08/01 06:56:25;;;;;;;0.20;0.00;;;28.00;99.90;;;;;;25698675;23;20182;-69
2022/08/01 07:06:29;;;;;;;0.20;0.00;;;28.10;99.90;;;;;;25696692;23;20912;-70
2022/08/01 07:16:34;;;;;;;0.20;0.00;;;28.20;99.90;;;;;;25670834;23;20271;-70
2022/08/01 07:26:38;;;;;;;0.20;0.00;;;28.20;99.90;;;;;;25670851;23;20285;-68
2022/08/01 07:36:56;;;;;;;0.20;0.00;;;28.50;99.90;;;;;;25692115;23;20173;-69
2022/08/01 07:47:00;;;;;;;0.20;0.00;;;28.50;99.90;;;;;;25694998;23;20173;-68
2022/08/01 07:57:05;;;;;;;0.20;0.00;;;28.70;99.90;;;;;;25695245;23;20177;-68
2022/08/01 08:07:09;;;;;;;0.20;0.00;;;28.70;99.90;;;;;;25665871;23;20198;-68
2022/08/01 08:17:14;;;;;;;0.20;0.03;;;29.00;99.90;;;;;;25693272;23;20194;-70
2022/08/01 08:27:18;;;;;;;0.20;0.00;;;29.00;99.90;;;;;;25693271;23;20208;-68
2022/08/01 08:37:23;;;;;;;0.20;0.00;;;29.30;99.90;;;;;;25667750;23;20166;-68
2022/08/01 08:47:35;;;;;;;0.20;0.00;;;29.50;99.90;;;;;;25693008;23;20186;-68
2022/08/01 08:57:44;;;;;;;0.20;0.00;;;29.70;99.90;;;;;;25666871;23;20174;-69
2022/08/01 09:07:48;;;;;;;0.20;0.00;;;29.80;99.90;;;;;;25666639;23;20202;-67
2022/08/01 09:17:53;;;;;;;0.20;0.00;;;30.10;99.90;;;;;;25692917;23;20205;-68
2022/08/01 09:28:05;;;;;;;0.20;0.00;;;30.40;99.90;;;;;;25694037;23;20193;-68
2022/08/01 09:38:18;;;;;;;0.20;0.00;;;30.60;99.90;;;;;;25669637;23;20173;-66
2022/08/01 09:48:23;;;;;;;0.20;0.00;;;30.70;99.90;;;;;;25685290;23;20201;-67
2022/08/01 09:58:50;;;;;;;0.20;0.00;;;30.90;99.90;;;;;;25669593;23;20186;-68
2022/08/01 10:09:01;;;;;;;0.20;0.00;;;31.00;99.90;;;;;;25693898;23;20208;-67
2022/08/01 10:19:09;;;;;;;0.20;0.00;;;31.30;99.90;;;;;;25695584;23;20669;-68
2022/08/01 10:29:19;;;;;;;0.20;0.00;;;31.30;99.90;;;;;;25694094;23;20201;-66
2022/08/01 10:39:45;;;;;;;0.20;0.00;;;31.30;99.90;;;;;;25691269;23;20174;-67
2022/08/01 10:49:54;;;;;;;0.20;0.20;;;31.90;99.90;;;;;;25693586;23;20191;-66
2022/08/01 11:00:01;;;;;;;0.20;0.00;;;32.00;99.90;;;;;;25691997;23;20237;-67
2022/08/01 11:10:17;;;;;;;0.20;0.00;;;31.90;99.90;;;;;;25665835;23;20210;-67
2022/08/01 11:20:30;;;;;;;0.20;0.00;;;32.80;99.90;;;;;;25670221;23;20166;-67
2022/08/01 11:30:34;;;;;;;0.20;0.00;;;32.70;99.90;;;;;;25696068;23;20190;-68
2022/08/01 11:40:43;;;;;;;0.20;0.00;;;34.00;99.90;;;;;;25696285;23;20174;-67
2022/08/01 11:50:47;;;;;;;0.20;0.00;;;34.20;99.90;;;;;;25689276;23;20185;-68
2022/08/01 12:00:53;;;;;;;0.20;0.00;;;34.90;99.90;;;;;;25687718;23;20202;-69
2022/08/01 12:10:57;;;;;;;0.20;0.00;;;36.20;99.90;;;;;;25687958;23;20206;-68
2022/08/01 12:21:06;;;;;;;0.20;0.00;;;35.50;99.90;;;;;;25665281;23;20181;-68
2022/08/01 12:31:10;;;;;;;0.20;0.00;;;35.50;99.90;;;;;;25691043;23;20197;-72
2022/08/01 12:41:17;;;;;;;0.20;0.00;;;35.30;99.90;;;;;;25664002;23;20170;-69
2022/08/01 12:51:22;;;;;;;0.20;0.00;;;36.10;99.90;;;;;;25664302;23;20248;-68
2022/08/01 13:01:28;;;;;;;0.20;0.00;;;35.60;99.90;;;;;;25666680;23;20283;-69
2022/08/01 13:11:34;;;;;;;0.20;0.00;;;36.30;99.90;;;;;;25693273;23;20185;-69
2022/08/01 13:21:39;;;;;;;0.20;0.00;;;36.80;99.90;;;;;;25693114;23;20243;-68
2022/08/01 13:31:57;;;;;;;0.20;0.00;;;36.40;99.90;;;;;;25670288;23;20221;-69
2022/08/01 13:42:02;;;;;;;0.20;0.00;;;36.50;99.90;;;;;;25694887;23;20186;-67
2022/08/01 13:52:07;;;;;;;0.20;0.00;;;36.70;99.90;;;;;;25689554;23;20233;-68
2022/08/01 14:02:13;;;;;;;0.20;0.00;;;36.40;99.90;;;;;;25694198;23;20194;-69
2022/08/01 14:12:17;;;;;;;0.20;0.00;;;37.00;99.90;;;;;;25695641;23;20197;-69
2022/08/01 14:22:22;;;;;;;0.20;0.00;;;37.20;99.90;;;;;;25696959;23;20174;-69
2022/08/01 14:32:26;;;;;;;0.20;0.00;;;38.70;99.90;;;;;;25696923;23;20182;-68
2022/08/01 14:42:32;;;;;;;0.20;0.00;;;38.40;99.90;;;;;;25670707;23;20177;-68
2022/08/01 14:52:37;;;;;;;0.20;0.00;;;38.80;99.90;;;;;;25693949;23;20205;-69
2022/08/01 15:02:43;;;;;;;0.20;0.00;;;38.70;99.90;;;;;;25695083;23;20224;-69
2022/08/01 15:12:47;;;;;;;0.20;0.00;;;37.80;99.90;;;;;;25692977;23;20268;-68
2022/08/01 15:22:54;;;;;;;0.20;0.00;;;38.90;99.90;;;;;;25692659;23;20285;-70
2022/08/01 15:32:58;;;;;;;0.20;0.00;;;39.60;99.90;;;;;;25693085;23;20246;-68
2022/08/01 15:43:04;;;;;;;0.20;0.00;;;38.90;99.90;;;;;;25691764;23;20185;-68
2022/08/01 15:53:08;;;;;;;0.20;0.00;;;37.80;99.90;;;;;;25691138;23;20208;-67
2022/08/01 16:03:14;;;;;;;0.20;0.00;;;36.10;99.90;;;;;;25664901;23;20255;-68
2022/08/01 16:13:17;;;;;;;0.20;0.00;;;34.10;99.90;;;;;;25657333;23;20209;-68
2022/08/01 16:23:23;;;;;;;0.20;0.00;;;33.20;99.90;;;;;;25683054;23;20205;-68
2022/08/01 16:33:26;;;;;;;0.20;0.00;;;32.60;99.90;;;;;;25664988;23;20221;-67
2022/08/01 16:43:52;;;;;;;0.20;0.00;;;32.40;99.90;;;;;;25667263;23;20167;-68
2022/08/01 16:53:57;;;;;;;0.20;0.00;;;32.20;99.90;;;;;;25688514;23;20186;-69
2022/08/01 17:04:02;;;;;;;0.20;0.00;;;32.30;99.90;;;;;;25689923;23;20264;-68
2022/08/01 17:14:06;;;;;;;0.20;0.00;;;32.20;99.90;;;;;;25666206;23;20245;-67
2022/08/01 17:24:12;;;;;;;0.20;0.00;;;32.70;99.90;;;;;;25693030;23;20489;-67
2022/08/01 17:34:19;;;;;;;0.20;0.00;;;33.90;99.90;;;;;;25667587;23;20186;-68
2022/08/01 17:44:26;;;;;;;0.20;0.00;;;34.50;99.90;;;;;;25694917;23;20205;-69
2022/08/01 17:54:30;;;;;;;0.20;0.00;;;34.40;99.90;;;;;;25698819;23;20182;-67
2022/08/01 18:04:35;;;;;;;0.20;0.00;;;33.40;99.90;;;;;;25699057;23;20277;-68
2022/08/01 18:14:46;;;;;;;0.20;0.00;;;32.20;99.90;;;;;;25697546;23;20197;-69
2022/08/01 18:24:53;;;;;;;0.20;0.00;;;30.70;99.90;;;;;;25697105;23;20170;-69
2022/08/01 18:34:57;;;;;;;0.20;0.00;;;30.20;99.90;;;;;;25690420;23;20206;-69
2022/08/01 18:45:03;;;;;;;0.20;0.00;;;30.10;99.90;;;;;;25663419;23;20162;-67
2022/08/01 18:55:07;;;;;;;0.20;0.00;;;29.80;99.90;;;;;;25669827;23;20238;-69
2022/08/01 19:05:12;;;;;;;0.20;0.00;;;29.60;99.90;;;;;;25646073;23;20198;-69
2022/08/01 19:15:16;;;;;;;0.20;0.00;;;29.30;99.90;;;;;;25683301;23;20233;-70
2022/08/01 19:25:22;;;;;;;0.20;0.00;;;29.40;99.90;;;;;;25669236;23;20212;-68
2022/08/01 19:35:26;;;;;;;0.20;0.00;;;29.10;99.90;;;;;;25668386;23;20209;-69
2022/08/01 19:45:33;;;;;;;0.20;0.00;;;29.00;99.90;;;;;;25693931;23;20185;-68
2022/08/01 19:55:39;;;;;;;0.20;0.00;;;29.00;99.90;;;;;;25692294;23;20797;-69
2022/08/01 20:05:45;;;;;;;0.20;0.00;;;28.90;99.90;;;;;;25691032;23;20602;-69
2022/08/01 20:15:49;;;;;;;0.20;0.00;;;28.90;99.90;;;;;;25665414;23;20186;-70
2022/08/01 20:25:58;;;;;;;0.20;0.00;;;28.80;99.90;;;;;;25691451;23;20213;-68
2022/08/01 20:36:04;;;;;;;0.20;0.00;;;28.90;99.90;;;;;;25694421;23;20185;-68
2022/08/01 20:46:16;;;;;;;0.20;0.00;;;28.60;99.90;;;;;;25694404;23;20177;-69
2022/08/01 20:56:29;;;;;;;0.20;0.00;;;28.70;99.90;;;;;;25694070;23;20243;-66
2022/08/01 21:06:37;;;;;;;0.20;0.00;;;28.90;99.90;;;;;;25667122;23;20212;-65
2022/08/01 21:16:46;;;;;;;0.20;0.00;;;28.70;99.90;;;;;;25661767;23;20229;-65
2022/08/01 21:26:53;;;;;;;0.20;0.03;;;28.50;99.90;;;;;;25701001;23;20204;-65
2022/08/01 21:36:57;;;;;;;0.20;0.00;;;28.60;99.90;;;;;;25700077;23;20233;-68
2022/08/01 21:47:03;;;;;;;0.20;0.10;;;28.80;99.90;;;;;;25668460;23;20158;-69
2022/08/01 21:57:17;;;;;;;0.20;0.00;;;29.30;99.90;;;;;;25669827;23;20197;-69
2022/08/01 22:07:25;;;;;;;0.20;0.00;;;29.30;99.90;;;;;;25698749;23;20198;-67
2022/08/01 22:17:29;;;;;;;0.20;0.00;;;29.20;99.90;;;;;;25699718;23;20194;-67
2022/08/01 22:27:35;;;;;;;0.20;0.00;;;29.10;99.90;;;;;;25675777;23;20180;-67
2022/08/01 22:37:58;;;;;;;0.20;0.00;;;29.10;99.90;;;;;;25698650;23;20182;-68
2022/08/01 22:48:14;;;;;;;0.20;0.00;;;29.20;99.90;;;;;;25700216;23;20181;-68
2022/08/01 22:58:19;;;;;;;0.20;0.00;;;29.00;99.90;;;;;;25698994;23;20205;-68
2022/08/01 23:08:25;;;;;;;0.20;0.00;;;29.00;99.90;;;;;;25699627;23;20224;-68
2022/08/01 23:18:30;;;;;;;0.20;0.00;;;29.10;99.90;;;;;;25699719;23;20217;-68
2022/08/01 23:28:36;;;;;;;0.20;0.00;;;29.10;99.90;;;;;;25673597;23;20226;-69
2022/08/01 23:38:40;;;;;;;0.20;0.00;;;29.10;99.90;;;;;;25698120;23;20202;-69
2022/08/01 23:48:45;;;;;;;0.20;0.00;;;28.90;99.90;;;;;;25698938;23;20186;-69
2022/08/01 23:58:49;;;;;;;0.20;0.00;;;28.70;99.90;;;;;;25697950;23;20249;-68
